sensor_id;sensor_type;location;lat;lon;timestamp;temperature;humidity
13205;DHT22;6667;52.634;9.226;2022-09-06T04:32:31;17.70;99.90
13205;DHT22;6667;52.634;9.226;2022-09-06T04:34:58;17.80;99.90
13205;DHT22;6667;52.634;9.226;2022-09-06T04:37:25;17.70;99.90
13205;DHT22;6667;52.634;9.226;2022-09-06T04:39:51;17.80;99.90
13205;DHT22;6667;52.634;9.226;2022-09-06T04:42:18;17.70;99.90
13205;DHT22;6667;52.634;9.226;2022-09-06T04:44:45;17.70;99.90
13205;DHT22;6667;52.634;9.226;2022-09-06T04:47:13;17.70;99.90
13205;DHT22;6667;52.634;9.226;2022-09-06T04:49:44;17.70;99.90
13205;DHT22;6667;52.634;9.226;2022-09-06T04:52:11;17.70;99.90
13205;DHT22;6667;52.634;9.226;2022-09-06T04:54:37;17.70;99.90
13205;DHT22;6667;52.634;9.226;2022-09-06T04:57:04;17.70;99.90
13205;DHT22;6667;52.634;9.226;2022-09-06T04:59:31;17.70;99.90
13205;DHT22;6667;52.634;9.226;2022-09-06T05:01:58;17.70;99.90
13205;DHT22;6667;52.634;9.226;2022-09-06T05:04:24;17.60;99.90
13205;DHT22;6667;52.634;9.226;2022-09-06T05:06:59;17.60;99.90
13205;DHT22;6667;52.634;9.226;2022-09-06T05:09:27;17.60;99.90
13205;DHT22;6667;52.634;9.226;2022-09-06T05:11:54;17.60;99.90
13205;DHT22;6667;52.634;9.226;2022-09-06T05:14:21;17.60;99.90
13205;DHT22;6667;52.634;9.226;2022-09-06T05:16:47;17.60;99.90
13205;DHT22;6667;52.634;9.226;2022-09-06T05:19:15;17.60;99.90
13205;DHT22;6667;52.634;9.226;2022-09-06T05:21:41;17.60;99.90
13205;DHT22;6667;52.634;9.226;2022-09-06T05:24:09;17.60;99.90
13205;DHT22;6667;52.634;9.226;2022-09-06T05:26:36;17.60;99.90
13205;DHT22;6667;52.634;9.226;2022-09-06T05:29:03;17.60;99.90
13205;DHT22;6667;52.634;9.226;2022-09-06T05:31:30;17.50;99.90
13205;DHT22;6667;52.634;9.226;2022-09-06T05:33:57;17.50;99.90
13205;DHT22;6667;52.634;9.226;2022-09-06T05:36:24;17.60;99.90
13205;DHT22;6667;52.634;9.226;2022-09-06T05:38:52;17.60;99.90
13205;DHT22;6667;52.634;9.226;2022-09-06T05:41:21;17.60;99.90
13205;DHT22;6667;52.634;9.226;2022-09-06T05:43:48;17.70;99.90
13205;DHT22;6667;52.634;9.226;2022-09-06T05:46:15;17.70;99.90
13205;DHT22;6667;52.634;9.226;2022-09-06T05:48:42;17.60;99.90
13205;DHT22;6667;52.634;9.226;2022-09-06T05:51:10;17.70;99.90
13205;DHT22;6667;52.634;9.226;2022-09-06T05:53:39;17.60;99.90
13205;DHT22;6667;52.634;9.226;2022-09-06T05:56:07;17.60;99.90
13205;DHT22;6667;52.634;9.226;2022-09-06T05:58:35;17.60;99.90
13205;DHT22;6667;52.634;9.226;2022-09-06T06:01:07;17.40;99.90
13205;DHT22;6667;52.634;9.226;2022-09-06T06:03:34;17.20;99.90
13205;DHT22;6667;52.634;9.226;2022-09-06T06:06:00;17.10;99.90
13205;DHT22;6667;52.634;9.226;2022-09-06T06:08:27;17.00;99.90
13205;DHT22;6667;52.634;9.226;2022-09-06T06:10:57;17.00;99.90
13205;DHT22;6667;52.634;9.226;2022-09-06T06:13:25;16.90;99.90
13205;DHT22;6667;52.634;9.226;2022-09-06T06:15:54;16.90;99.90
13205;DHT22;6667;52.634;9.226;2022-09-06T06:18:21;16.90;99.90
13205;DHT22;6667;52.634;9.226;2022-09-06T06:20:47;16.90;99.90
13205;DHT22;6667;52.634;9.226;2022-09-06T06:23:15;17.00;99.90
13205;DHT22;6667;52.634;9.226;2022-09-06T06:25:41;17.00;99.90
13205;DHT22;6667;52.634;9.226;2022-09-06T06:28:08;17.00;99.90
13205;DHT22;6667;52.634;9.226;2022-09-06T06:30:34;16.90;99.90
13205;DHT22;6667;52.634;9.226;2022-09-06T06:33:02;16.80;99.90
13205;DHT22;6667;52.634;9.226;2022-09-06T06:35:29;16.70;99.90
13205;DHT22;6667;52.634;9.226;2022-09-06T06:37:56;16.70;99.90
13205;DHT22;6667;52.634;9.226;2022-09-06T06:40:22;16.60;99.90
13205;DHT22;6667;52.634;9.226;2022-09-06T06:42:49;16.60;99.90
13205;DHT22;6667;52.634;9.226;2022-09-06T06:45:15;16.60;99.90
13205;DHT22;6667;52.634;9.226;2022-09-06T06:47:43;16.50;99.90
13205;DHT22;6667;52.634;9.226;2022-09-06T06:50:10;16.60;99.90
13205;DHT22;6667;52.634;9.226;2022-09-06T06:52:37;16.60;99.90
13205;DHT22;6667;52.634;9.226;2022-09-06T06:55:04;16.50;99.90
13205;DHT22;6667;52.634;9.226;2022-09-06T06:57:31;16.40;99.90
13205;DHT22;6667;52.634;9.226;2022-09-06T06:59:57;16.40;99.90
13205;DHT22;6667;52.634;9.226;2022-09-06T07:02:24;16.30;99.90
13205;DHT22;6667;52.634;9.226;2022-09-06T07:04:51;16.30;99.90
13205;DHT22;6667;52.634;9.226;2022-09-06T07:07:18;16.10;99.90
13205;DHT22;6667;52.634;9.226;2022-09-06T07:09:45;16.10;99.90
13205;DHT22;6667;52.634;9.226;2022-09-06T07:12:12;15.90;99.90
13205;DHT22;6667;52.634;9.226;2022-09-06T07:14:38;15.80;99.90
13205;DHT22;6667;52.634;9.226;2022-09-06T07:17:05;15.80;99.90
13205;DHT22;6667;52.634;9.226;2022-09-06T07:19:31;15.80;99.90
13205;DHT22;6667;52.634;9.226;2022-09-06T07:21:58;15.80;99.90
13205;DHT22;6667;52.634;9.226;2022-09-06T07:24:26;15.50;99.90
13205;DHT22;6667;52.634;9.226;2022-09-06T07:26:52;15.50;99.90
13205;DHT22;6667;52.634;9.226;2022-09-06T07:29:19;15.60;99.90
13205;DHT22;6667;52.634;9.226;2022-09-06T07:31:45;15.50;99.90
13205;DHT22;6667;52.634;9.226;2022-09-06T07:34:12;15.60;99.90
13205;DHT22;6667;52.634;9.226;2022-09-06T07:36:39;15.60;99.90
13205;DHT22;6667;52.634;9.226;2022-09-06T07:39:05;15.80;99.90
13205;DHT22;6667;52.634;9.226;2022-09-06T07:41:33;16.00;99.90
13205;DHT22;6667;52.634;9.226;2022-09-06T07:44:00;16.30;99.90
13205;DHT22;6667;52.634;9.226;2022-09-06T07:46:26;16.40;99.90
13205;DHT22;6667;52.634;9.226;2022-09-06T07:48:53;16.50;99.90
13205;DHT22;6667;52.634;9.226;2022-09-06T07:51:20;16.50;99.90
13205;DHT22;6667;52.634;9.226;2022-09-06T07:53:48;16.60;99.90
13205;DHT22;6667;52.634;9.226;2022-09-06T07:56:17;16.60;99.90
13205;DHT22;6667;52.634;9.226;2022-09-06T07:58:45;16.50;99.90
13205;DHT22;6667;52.634;9.226;2022-09-06T08:01:17;16.60;99.90
13205;DHT22;6667;52.634;9.226;2022-09-06T08:03:45;16.80;99.90
13205;DHT22;6667;52.634;9.226;2022-09-06T08:06:12;16.80;99.90
13205;DHT22;6667;52.634;9.226;2022-09-06T08:08:39;16.80;99.90
13205;DHT22;6667;52.634;9.226;2022-09-06T08:11:06;16.80;99.90
13205;DHT22;6667;52.634;9.226;2022-09-06T08:13:33;16.90;99.90
13205;DHT22;6667;52.634;9.226;2022-09-06T08:16:02;16.90;99.90
13205;DHT22;6667;52.634;9.226;2022-09-06T08:18:29;16.90;99.90
13205;DHT22;6667;52.634;9.226;2022-09-06T08:20:56;17.10;99.90
13205;DHT22;6667;52.634;9.226;2022-09-06T08:23:30;17.10;99.90
13205;DHT22;6667;52.634;9.226;2022-09-06T08:25:57;17.10;99.90
13205;DHT22;6667;52.634;9.226;2022-09-06T08:28:24;17.10;99.90
13205;DHT22;6667;52.634;9.226;2022-09-06T08:30:51;17.00;99.90
13205;DHT22;6667;52.634;9.226;2022-09-06T08:33:19;17.00;99.90
13205;DHT22;6667;52.634;9.226;2022-09-06T08:35:53;17.10;99.90
13205;DHT22;6667;52.634;9.226;2022-09-06T08:38:20;17.20;99.90
13205;DHT22;6667;52.634;9.226;2022-09-06T08:40:47;17.20;99.90
13205;DHT22;6667;52.634;9.226;2022-09-06T08:43:16;17.20;99.90
13205;DHT22;6667;52.634;9.226;2022-09-06T08:45:45;17.30;99.90
13205;DHT22;6667;52.634;9.226;2022-09-06T08:48:13;17.40;99.90
13205;DHT22;6667;52.634;9.226;2022-09-06T08:50:46;17.60;99.90
13205;DHT22;6667;52.634;9.226;2022-09-06T08:53:18;17.60;99.90
13205;DHT22;6667;52.634;9.226;2022-09-06T08:55:49;17.60;99.90
13205;DHT22;6667;52.634;9.226;2022-09-06T08:58:28;17.60;99.90
13205;DHT22;6667;52.634;9.226;2022-09-06T09:01:01;17.40;99.90
13205;DHT22;6667;52.634;9.226;2022-09-06T09:03:31;17.40;99.90
13205;DHT22;6667;52.634;9.226;2022-09-06T09:05:59;17.20;99.90
13205;DHT22;6667;52.634;9.226;2022-09-06T09:08:34;17.20;99.90
13205;DHT22;6667;52.634;9.226;2022-09-06T09:11:04;17.40;99.90
13205;DHT22;6667;52.634;9.226;2022-09-06T09:13:35;17.40;99.90
13205;DHT22;6667;52.634;9.226;2022-09-06T09:16:05;17.40;99.90
13205;DHT22;6667;52.634;9.226;2022-09-06T09:18:33;17.50;99.90
13205;DHT22;6667;52.634;9.226;2022-09-06T09:21:03;17.70;99.90
13205;DHT22;6667;52.634;9.226;2022-09-06T09:23:30;17.60;99.90
13205;DHT22;6667;52.634;9.226;2022-09-06T09:26:00;17.70;99.90
13205;DHT22;6667;52.634;9.226;2022-09-06T09:28:28;17.70;99.90
13205;DHT22;6667;52.634;9.226;2022-09-06T09:30:56;17.70;99.90
13205;DHT22;6667;52.634;9.226;2022-09-06T09:33:25;17.40;99.90
13205;DHT22;6667;52.634;9.226;2022-09-06T09:35:53;17.60;99.90
13205;DHT22;6667;52.634;9.226;2022-09-06T09:38:23;17.60;99.90
13205;DHT22;6667;52.634;9.226;2022-09-06T09:40:53;17.50;99.90
13205;DHT22;6667;52.634;9.226;2022-09-06T09:43:22;17.30;99.90
13205;DHT22;6667;52.634;9.226;2022-09-06T09:46:09;17.10;99.90
13205;DHT22;6667;52.634;9.226;2022-09-06T09:48:36;17.00;99.90
13205;DHT22;6667;52.634;9.226;2022-09-06T09:51:17;16.80;99.90
13205;DHT22;6667;52.634;9.226;2022-09-06T09:53:50;16.90;99.90
13205;DHT22;6667;52.634;9.226;2022-09-06T09:56:33;16.80;99.90
13205;DHT22;6667;52.634;9.226;2022-09-06T09:59:01;16.80;99.90
13205;DHT22;6667;52.634;9.226;2022-09-06T10:01:32;16.90;99.90
13205;DHT22;6667;52.634;9.226;2022-09-06T10:04:01;17.10;99.90
13205;DHT22;6667;52.634;9.226;2022-09-06T10:06:28;17.20;99.90
13205;DHT22;6667;52.634;9.226;2022-09-06T10:08:56;17.10;99.90
13205;DHT22;6667;52.634;9.226;2022-09-06T10:11:38;17.10;99.90
13205;DHT22;6667;52.634;9.226;2022-09-06T10:14:10;17.20;99.90
13205;DHT22;6667;52.634;9.226;2022-09-06T10:16:41;17.20;99.90
13205;DHT22;6667;52.634;9.226;2022-09-06T10:19:21;17.30;99.90
13205;DHT22;6667;52.634;9.226;2022-09-06T10:21:50;17.40;99.90
13205;DHT22;6667;52.634;9.226;2022-09-06T10:24:27;17.70;99.90
13205;DHT22;6667;52.634;9.226;2022-09-06T10:26:58;18.00;99.90
13205;DHT22;6667;52.634;9.226;2022-09-06T10:29:34;18.80;99.90
13205;DHT22;6667;52.634;9.226;2022-09-06T10:32:16;19.70;99.90
13205;DHT22;6667;52.634;9.226;2022-09-06T10:37:48;20.70;99.90
13205;DHT22;6667;52.634;9.226;2022-09-06T10:40:25;20.20;99.90
13205;DHT22;6667;52.634;9.226;2022-09-06T10:42:56;20.00;99.90
13205;DHT22;6667;52.634;9.226;2022-09-06T10:45:31;20.00;99.90
13205;DHT22;6667;52.634;9.226;2022-09-06T10:48:02;20.60;99.90
13205;DHT22;6667;52.634;9.226;2022-09-06T10:50:40;20.80;99.90
13205;DHT22;6667;52.634;9.226;2022-09-06T10:53:12;21.20;99.90
13205;DHT22;6667;52.634;9.226;2022-09-06T10:55:43;21.00;99.90
13205;DHT22;6667;52.634;9.226;2022-09-06T10:58:11;21.00;99.90
13205;DHT22;6667;52.634;9.226;2022-09-06T11:00:42;21.10;99.90
13205;DHT22;6667;52.634;9.226;2022-09-06T11:03:16;21.50;99.90
13205;DHT22;6667;52.634;9.226;2022-09-06T11:05:47;21.60;99.90
13205;DHT22;6667;52.634;9.226;2022-09-06T11:08:21;22.00;99.90
13205;DHT22;6667;52.634;9.226;2022-09-06T11:10:50;21.20;99.90
13205;DHT22;6667;52.634;9.226;2022-09-06T11:13:22;21.10;99.90
13205;DHT22;6667;52.634;9.226;2022-09-06T11:15:54;21.60;99.90
13205;DHT22;6667;52.634;9.226;2022-09-06T11:18:25;22.40;99.90
13205;DHT22;6667;52.634;9.226;2022-09-06T11:21:06;22.40;99.90
13205;DHT22;6667;52.634;9.226;2022-09-06T11:23:42;22.60;99.90
13205;DHT22;6667;52.634;9.226;2022-09-06T11:26:42;22.40;99.90
13205;DHT22;6667;52.634;9.226;2022-09-06T11:29:16;22.40;99.90
13205;DHT22;6667;52.634;9.226;2022-09-06T11:31:52;22.70;99.90
13205;DHT22;6667;52.634;9.226;2022-09-06T11:34:21;22.30;99.90
13205;DHT22;6667;52.634;9.226;2022-09-06T11:36:50;22.20;99.90
13205;DHT22;6667;52.634;9.226;2022-09-06T11:39:30;22.30;99.90
13205;DHT22;6667;52.634;9.226;2022-09-06T11:41:59;22.20;99.90
13205;DHT22;6667;52.634;9.226;2022-09-06T11:44:51;22.30;99.90
13205;DHT22;6667;52.634;9.226;2022-09-06T11:47:43;22.20;99.90
13205;DHT22;6667;52.634;9.226;2022-09-06T11:50:24;22.60;99.90
13205;DHT22;6667;52.634;9.226;2022-09-06T11:52:59;23.20;99.90
13205;DHT22;6667;52.634;9.226;2022-09-06T11:55:35;23.30;99.90
13205;DHT22;6667;52.634;9.226;2022-09-06T11:58:07;23.20;99.90
13205;DHT22;6667;52.634;9.226;2022-09-06T12:00:35;22.50;99.90
13205;DHT22;6667;52.634;9.226;2022-09-06T12:03:01;22.90;99.90
13205;DHT22;6667;52.634;9.226;2022-09-06T12:05:30;22.90;99.90
13205;DHT22;6667;52.634;9.226;2022-09-06T12:08:23;23.30;99.90
13205;DHT22;6667;52.634;9.226;2022-09-06T12:11:01;23.60;99.90
13205;DHT22;6667;52.634;9.226;2022-09-06T12:13:42;24.10;99.90
13205;DHT22;6667;52.634;9.226;2022-09-06T12:16:14;23.40;99.90
13205;DHT22;6667;52.634;9.226;2022-09-06T12:18:59;23.70;99.90
13205;DHT22;6667;52.634;9.226;2022-09-06T12:21:37;23.70;99.90
13205;DHT22;6667;52.634;9.226;2022-09-06T12:24:06;23.60;99.90
13205;DHT22;6667;52.634;9.226;2022-09-06T12:26:48;24.10;99.90
13205;DHT22;6667;52.634;9.226;2022-09-06T12:29:22;24.20;99.90
13205;DHT22;6667;52.634;9.226;2022-09-06T12:31:50;24.20;99.90
13205;DHT22;6667;52.634;9.226;2022-09-06T12:34:21;23.90;99.90
13205;DHT22;6667;52.634;9.226;2022-09-06T12:36:54;23.90;99.90
13205;DHT22;6667;52.634;9.226;2022-09-06T12:39:22;24.20;99.90
13205;DHT22;6667;52.634;9.226;2022-09-06T12:41:51;24.10;99.90
13205;DHT22;6667;52.634;9.226;2022-09-06T12:44:27;23.70;99.90
13205;DHT22;6667;52.634;9.226;2022-09-06T12:46:54;24.10;99.90
13205;DHT22;6667;52.634;9.226;2022-09-06T12:49:24;24.00;99.90
13205;DHT22;6667;52.634;9.226;2022-09-06T12:52:05;23.80;99.90
13205;DHT22;6667;52.634;9.226;2022-09-06T12:54:32;23.90;99.90
13205;DHT22;6667;52.634;9.226;2022-09-06T12:57:11;24.10;99.90
13205;DHT22;6667;52.634;9.226;2022-09-06T12:59:48;24.30;99.90
13205;DHT22;6667;52.634;9.226;2022-09-06T13:02:19;24.20;99.90
13205;DHT22;6667;52.634;9.226;2022-09-06T13:04:49;24.60;99.90
13205;DHT22;6667;52.634;9.226;2022-09-06T13:07:19;24.30;99.90
13205;DHT22;6667;52.634;9.226;2022-09-06T13:09:48;24.20;99.90
13205;DHT22;6667;52.634;9.226;2022-09-06T13:12:22;24.50;99.90
13205;DHT22;6667;52.634;9.226;2022-09-06T13:14:52;24.40;99.90
13205;DHT22;6667;52.634;9.226;2022-09-06T13:17:24;24.40;99.90
13205;DHT22;6667;52.634;9.226;2022-09-06T13:19:52;24.90;99.90
13205;DHT22;6667;52.634;9.226;2022-09-06T13:22:40;24.80;99.90
13205;DHT22;6667;52.634;9.226;2022-09-06T13:25:14;24.80;99.90
13205;DHT22;6667;52.634;9.226;2022-09-06T13:27:43;25.10;99.90
13205;DHT22;6667;52.634;9.226;2022-09-06T13:30:31;24.90;99.90
13205;DHT22;6667;52.634;9.226;2022-09-06T13:32:59;25.50;99.90
13205;DHT22;6667;52.634;9.226;2022-09-06T13:35:27;24.90;99.90
13205;DHT22;6667;52.634;9.226;2022-09-06T13:38:19;25.00;99.90
13205;DHT22;6667;52.634;9.226;2022-09-06T13:40:48;24.70;99.90
13205;DHT22;6667;52.634;9.226;2022-09-06T13:43:20;24.80;99.90
13205;DHT22;6667;52.634;9.226;2022-09-06T13:45:48;24.50;99.90
13205;DHT22;6667;52.634;9.226;2022-09-06T13:48:15;24.70;99.90
13205;DHT22;6667;52.634;9.226;2022-09-06T13:50:41;24.70;99.90
13205;DHT22;6667;52.634;9.226;2022-09-06T13:53:08;24.60;99.90
13205;DHT22;6667;52.634;9.226;2022-09-06T13:55:35;24.60;99.90
13205;DHT22;6667;52.634;9.226;2022-09-06T13:58:02;24.50;99.90
13205;DHT22;6667;52.634;9.226;2022-09-06T14:00:29;24.60;99.90
13205;DHT22;6667;52.634;9.226;2022-09-06T14:02:57;24.50;99.90
13205;DHT22;6667;52.634;9.226;2022-09-06T14:05:25;24.60;99.90
13205;DHT22;6667;52.634;9.226;2022-09-06T14:07:51;24.60;99.90
13205;DHT22;6667;52.634;9.226;2022-09-06T14:10:18;24.00;99.90
13205;DHT22;6667;52.634;9.226;2022-09-06T14:12:47;24.50;99.90
13205;DHT22;6667;52.634;9.226;2022-09-06T14:15:15;24.60;99.90
13205;DHT22;6667;52.634;9.226;2022-09-06T14:17:41;24.40;99.90
13205;DHT22;6667;52.634;9.226;2022-09-06T14:20:10;24.60;99.90
13205;DHT22;6667;52.634;9.226;2022-09-06T14:22:36;24.20;99.90
13205;DHT22;6667;52.634;9.226;2022-09-06T14:25:04;24.50;99.90
13205;DHT22;6667;52.634;9.226;2022-09-06T14:27:31;24.70;99.90
13205;DHT22;6667;52.634;9.226;2022-09-06T14:29:59;24.40;99.90
13205;DHT22;6667;52.634;9.226;2022-09-06T14:32:26;24.40;99.90
13205;DHT22;6667;52.634;9.226;2022-09-06T14:34:52;24.70;99.90
13205;DHT22;6667;52.634;9.226;2022-09-06T14:37:20;24.50;99.90
13205;DHT22;6667;52.634;9.226;2022-09-06T14:39:47;24.20;99.90
13205;DHT22;6667;52.634;9.226;2022-09-06T14:42:14;24.20;99.90
13205;DHT22;6667;52.634;9.226;2022-09-06T14:44:41;24.10;99.90
13205;DHT22;6667;52.634;9.226;2022-09-06T14:47:08;24.00;99.90
13205;DHT22;6667;52.634;9.226;2022-09-06T14:49:34;24.20;99.90
13205;DHT22;6667;52.634;9.226;2022-09-06T14:52:01;24.20;99.90
13205;DHT22;6667;52.634;9.226;2022-09-06T14:54:29;24.20;99.90
13205;DHT22;6667;52.634;9.226;2022-09-06T14:56:56;24.10;99.90
13205;DHT22;6667;52.634;9.226;2022-09-06T14:59:23;24.00;99.90
13205;DHT22;6667;52.634;9.226;2022-09-06T15:01:50;23.80;99.90
13205;DHT22;6667;52.634;9.226;2022-09-06T15:04:16;23.90;99.90
13205;DHT22;6667;52.634;9.226;2022-09-06T15:06:43;23.90;99.90
13205;DHT22;6667;52.634;9.226;2022-09-06T15:09:11;23.70;99.90
13205;DHT22;6667;52.634;9.226;2022-09-06T15:11:41;23.80;99.90
13205;DHT22;6667;52.634;9.226;2022-09-06T15:14:12;23.80;99.90
13205;DHT22;6667;52.634;9.226;2022-09-06T15:16:39;23.80;99.90
13205;DHT22;6667;52.634;9.226;2022-09-06T15:19:05;23.70;99.90
13205;DHT22;6667;52.634;9.226;2022-09-06T15:21:33;23.70;99.90
13205;DHT22;6667;52.634;9.226;2022-09-06T15:24:00;23.60;99.90
13205;DHT22;6667;52.634;9.226;2022-09-06T15:26:27;23.50;99.90
13205;DHT22;6667;52.634;9.226;2022-09-06T15:28:55;23.40;99.90
13205;DHT22;6667;52.634;9.226;2022-09-06T15:31:22;23.40;99.90
13205;DHT22;6667;52.634;9.226;2022-09-06T15:33:50;23.30;99.90
13205;DHT22;6667;52.634;9.226;2022-09-06T15:36:17;23.40;99.90
13205;DHT22;6667;52.634;9.226;2022-09-06T15:38:45;23.50;99.90
13205;DHT22;6667;52.634;9.226;2022-09-06T15:41:13;23.40;99.90
13205;DHT22;6667;52.634;9.226;2022-09-06T15:43:42;23.20;99.90
13205;DHT22;6667;52.634;9.226;2022-09-06T15:46:13;23.30;99.90
13205;DHT22;6667;52.634;9.226;2022-09-06T15:48:42;23.30;99.90
13205;DHT22;6667;52.634;9.226;2022-09-06T15:51:10;23.10;99.90
13205;DHT22;6667;52.634;9.226;2022-09-06T15:53:37;23.10;99.90
13205;DHT22;6667;52.634;9.226;2022-09-06T15:56:04;23.20;99.90
13205;DHT22;6667;52.634;9.226;2022-09-06T15:58:31;23.10;99.90
13205;DHT22;6667;52.634;9.226;2022-09-06T16:01:03;22.90;99.90
13205;DHT22;6667;52.634;9.226;2022-09-06T16:03:34;22.80;99.90
13205;DHT22;6667;52.634;9.226;2022-09-06T16:06:03;22.60;99.90
13205;DHT22;6667;52.634;9.226;2022-09-06T16:08:30;22.70;99.90
13205;DHT22;6667;52.634;9.226;2022-09-06T16:10:56;22.70;99.90
13205;DHT22;6667;52.634;9.226;2022-09-06T16:13:24;22.60;99.90
13205;DHT22;6667;52.634;9.226;2022-09-06T16:15:57;22.50;99.90
13205;DHT22;6667;52.634;9.226;2022-09-06T16:18:24;22.50;99.90
13205;DHT22;6667;52.634;9.226;2022-09-06T16:20:54;22.40;99.90
13205;DHT22;6667;52.634;9.226;2022-09-06T16:23:21;22.40;99.90
13205;DHT22;6667;52.634;9.226;2022-09-06T16:25:51;22.30;99.90
13205;DHT22;6667;52.634;9.226;2022-09-06T16:28:18;22.30;99.90
13205;DHT22;6667;52.634;9.226;2022-09-06T16:30:44;22.20;99.90
13205;DHT22;6667;52.634;9.226;2022-09-06T16:33:12;22.20;99.90
13205;DHT22;6667;52.634;9.226;2022-09-06T16:35:39;22.30;99.90
13205;DHT22;6667;52.634;9.226;2022-09-06T16:38:07;22.30;99.90
13205;DHT22;6667;52.634;9.226;2022-09-06T16:40:34;22.20;99.90
13205;DHT22;6667;52.634;9.226;2022-09-06T16:43:02;22.20;99.90
13205;DHT22;6667;52.634;9.226;2022-09-06T16:45:29;22.10;99.90
13205;DHT22;6667;52.634;9.226;2022-09-06T16:47:56;22.00;99.90
13205;DHT22;6667;52.634;9.226;2022-09-06T16:50:23;22.00;99.90
13205;DHT22;6667;52.634;9.226;2022-09-06T16:52:49;21.90;99.90
13205;DHT22;6667;52.634;9.226;2022-09-06T16:55:17;21.80;99.90
13205;DHT22;6667;52.634;9.226;2022-09-06T16:57:44;21.70;99.90
13205;DHT22;6667;52.634;9.226;2022-09-06T17:00:11;21.60;99.90
13205;DHT22;6667;52.634;9.226;2022-09-06T17:02:40;21.60;99.90
13205;DHT22;6667;52.634;9.226;2022-09-06T17:05:08;21.60;99.90
13205;DHT22;6667;52.634;9.226;2022-09-06T17:07:35;21.50;99.90
13205;DHT22;6667;52.634;9.226;2022-09-06T17:10:02;21.50;99.90
13205;DHT22;6667;52.634;9.226;2022-09-06T17:12:30;21.40;99.90
13205;DHT22;6667;52.634;9.226;2022-09-06T17:14:57;21.30;99.90
13205;DHT22;6667;52.634;9.226;2022-09-06T17:17:23;21.20;99.90
13205;DHT22;6667;52.634;9.226;2022-09-06T17:19:49;21.10;99.90
13205;DHT22;6667;52.634;9.226;2022-09-06T17:22:16;21.00;99.90
13205;DHT22;6667;52.634;9.226;2022-09-06T17:24:42;21.00;99.90
13205;DHT22;6667;52.634;9.226;2022-09-06T17:27:09;21.00;99.90
13205;DHT22;6667;52.634;9.226;2022-09-06T17:29:37;21.10;99.90
13205;DHT22;6667;52.634;9.226;2022-09-06T17:32:04;21.00;99.90
13205;DHT22;6667;52.634;9.226;2022-09-06T17:34:34;20.90;99.90
13205;DHT22;6667;52.634;9.226;2022-09-06T17:37:01;20.90;99.90
13205;DHT22;6667;52.634;9.226;2022-09-06T17:39:27;20.90;99.90
13205;DHT22;6667;52.634;9.226;2022-09-06T17:41:55;20.80;99.90
13205;DHT22;6667;52.634;9.226;2022-09-06T17:44:24;20.70;99.90
13205;DHT22;6667;52.634;9.226;2022-09-06T17:46:53;20.70;99.90
13205;DHT22;6667;52.634;9.226;2022-09-06T17:49:20;20.60;99.90
13205;DHT22;6667;52.634;9.226;2022-09-06T17:51:46;20.50;99.90
13205;DHT22;6667;52.634;9.226;2022-09-06T17:54:14;20.60;99.90
13205;DHT22;6667;52.634;9.226;2022-09-06T17:56:42;20.50;99.90
13205;DHT22;6667;52.634;9.226;2022-09-06T17:59:10;20.40;99.90
13205;DHT22;6667;52.634;9.226;2022-09-06T18:01:38;20.30;99.90
13205;DHT22;6667;52.634;9.226;2022-09-06T18:04:08;20.20;99.90
13205;DHT22;6667;52.634;9.226;2022-09-06T18:06:37;20.10;99.90
13205;DHT22;6667;52.634;9.226;2022-09-06T18:09:06;20.00;99.90
13205;DHT22;6667;52.634;9.226;2022-09-06T18:11:35;20.00;99.90
13205;DHT22;6667;52.634;9.226;2022-09-06T18:14:05;19.90;99.90
13205;DHT22;6667;52.634;9.226;2022-09-06T18:16:33;19.90;99.90
13205;DHT22;6667;52.634;9.226;2022-09-06T18:19:01;19.70;99.90
13205;DHT22;6667;52.634;9.226;2022-09-06T18:21:31;19.60;99.90
13205;DHT22;6667;52.634;9.226;2022-09-06T18:23:58;19.50;99.90
13205;DHT22;6667;52.634;9.226;2022-09-06T18:26:25;19.50;99.90
13205;DHT22;6667;52.634;9.226;2022-09-06T18:28:52;19.50;99.90
13205;DHT22;6667;52.634;9.226;2022-09-06T18:31:20;19.40;99.90
13205;DHT22;6667;52.634;9.226;2022-09-06T18:33:47;19.40;99.90
13205;DHT22;6667;52.634;9.226;2022-09-06T18:36:15;19.30;99.90
13205;DHT22;6667;52.634;9.226;2022-09-06T18:38:43;19.30;99.90
13205;DHT22;6667;52.634;9.226;2022-09-06T18:41:12;19.20;99.90
13205;DHT22;6667;52.634;9.226;2022-09-06T18:44:00;19.20;99.90
13205;DHT22;6667;52.634;9.226;2022-09-06T18:46:28;19.10;99.90
13205;DHT22;6667;52.634;9.226;2022-09-06T18:48:54;19.10;99.90
13205;DHT22;6667;52.634;9.226;2022-09-06T18:51:21;19.10;99.90
13205;DHT22;6667;52.634;9.226;2022-09-06T18:53:49;19.00;99.90
13205;DHT22;6667;52.634;9.226;2022-09-06T18:56:17;19.00;99.90
13205;DHT22;6667;52.634;9.226;2022-09-06T18:58:44;18.90;99.90
13205;DHT22;6667;52.634;9.226;2022-09-06T19:01:13;18.80;99.90
13205;DHT22;6667;52.634;9.226;2022-09-06T19:03:41;18.90;99.90
13205;DHT22;6667;52.634;9.226;2022-09-06T19:06:09;18.60;99.90
13205;DHT22;6667;52.634;9.226;2022-09-06T19:08:37;18.70;99.90
13205;DHT22;6667;52.634;9.226;2022-09-06T19:11:06;18.60;99.90
13205;DHT22;6667;52.634;9.226;2022-09-06T19:13:34;18.60;99.90
13205;DHT22;6667;52.634;9.226;2022-09-06T19:16:03;18.60;99.90
13205;DHT22;6667;52.634;9.226;2022-09-06T19:18:30;18.60;99.90
13205;DHT22;6667;52.634;9.226;2022-09-06T19:20:58;18.50;99.90
13205;DHT22;6667;52.634;9.226;2022-09-06T19:23:25;18.50;99.90
13205;DHT22;6667;52.634;9.226;2022-09-06T19:25:58;18.40;99.90
13205;DHT22;6667;52.634;9.226;2022-09-06T19:28:26;18.40;99.90
13205;DHT22;6667;52.634;9.226;2022-09-06T19:30:53;18.40;99.90
13205;DHT22;6667;52.634;9.226;2022-09-06T19:33:21;18.40;99.90
13205;DHT22;6667;52.634;9.226;2022-09-06T19:35:47;18.30;99.90
13205;DHT22;6667;52.634;9.226;2022-09-06T19:38:17;18.30;99.90
13205;DHT22;6667;52.634;9.226;2022-09-06T19:40:44;18.30;99.90
13205;DHT22;6667;52.634;9.226;2022-09-06T19:43:11;18.20;99.90
13205;DHT22;6667;52.634;9.226;2022-09-06T19:45:39;18.20;99.90
13205;DHT22;6667;52.634;9.226;2022-09-06T19:48:06;18.10;99.90
13205;DHT22;6667;52.634;9.226;2022-09-06T19:50:33;18.10;99.90
13205;DHT22;6667;52.634;9.226;2022-09-06T19:53:01;18.10;99.90
13205;DHT22;6667;52.634;9.226;2022-09-06T19:55:29;18.00;99.90
13205;DHT22;6667;52.634;9.226;2022-09-06T19:57:57;18.00;99.90
13205;DHT22;6667;52.634;9.226;2022-09-06T20:00:23;18.00;99.90
13205;DHT22;6667;52.634;9.226;2022-09-06T20:02:52;17.90;99.90
13205;DHT22;6667;52.634;9.226;2022-09-06T20:05:19;17.90;99.90
13205;DHT22;6667;52.634;9.226;2022-09-06T20:07:46;17.90;99.90
13205;DHT22;6667;52.634;9.226;2022-09-06T20:10:13;17.80;99.90
13205;DHT22;6667;52.634;9.226;2022-09-06T20:12:40;17.80;99.90
13205;DHT22;6667;52.634;9.226;2022-09-06T20:15:07;17.70;99.90
13205;DHT22;6667;52.634;9.226;2022-09-06T20:17:34;17.70;99.90
13205;DHT22;6667;52.634;9.226;2022-09-06T20:20:03;17.70;99.90
13205;DHT22;6667;52.634;9.226;2022-09-06T20:22:30;17.70;99.90
13205;DHT22;6667;52.634;9.226;2022-09-06T20:24:56;17.70;99.90
13205;DHT22;6667;52.634;9.226;2022-09-06T20:27:24;17.70;99.90
13205;DHT22;6667;52.634;9.226;2022-09-06T20:29:51;17.60;99.90
13205;DHT22;6667;52.634;9.226;2022-09-06T20:32:17;17.60;99.90